CheckWX is a tool to help pilots better visualize weather data.  It is not intended as a substitute for an official pre-flight weather briefing.

02:55:11 UTC

KILG METAR
New Castle Airport
Wilmington, Delaware, USA
Current

1 hour ago

KILG 060151Z 26006KT 10SM CLR 03/M05 A3011 RMK AO2 SLP196 T00281050
Observed
Dec-6 @ 01:51 UTC
Wind
  • 260° at 6 KTS
Visibility
10 SM
Flight Rules
VFR
Cloud Levels
  • Clear skies
Temperature
C / 37°F
Dewpoint
-5°C / 23°F
Humidity
56%
Altimeter
30.11" Hg
Pressure
1019.62 hPa
Previous

2 hours ago

KILG 060051Z 29007KT 10SM OVC055 04/M05 A3010 RMK AO2 SLP192 T00441050
Observed
Dec-6 @ 00:51 UTC
Wind
  • 290° at 7 KTS
Visibility
10 SM
Flight Rules
VFR
Cloud Levels
  • Overcast at 5,500' AGL
Temperature
C / 39°F
Dewpoint
-5°C / 23°F
Humidity
52%
Altimeter
30.1" Hg
Pressure
1019.32 hPa
Previous

3 hours ago

KILG 052351Z 29008KT 10SM SCT060 04/M05 A3007 RMK AO2 SLP183 T00441050 10067 20044 51031
Observed
Dec-5 @ 23:51 UTC
Wind
  • 290° at 8 KTS
Visibility
10 SM
Flight Rules
VFR
Cloud Levels
  • Scattered at 6,000' AGL
Temperature
C / 39°F
Dewpoint
-5°C / 23°F
Humidity
52%
Altimeter
30.07" Hg
Pressure
1018.32 hPa